sensor_id;sensor_type;location;lat;lon;timestamp;P1;durP1;ratioP1;P2;durP2;ratioP2
35056;SDS011;21241;51.828;19.574;2022-12-29T00:01:08;8.90;;;8.00;;
35056;SDS011;21241;51.828;19.574;2022-12-29T00:03:36;9.30;;;8.40;;
35056;SDS011;21241;51.828;19.574;2022-12-29T00:06:04;9.10;;;8.20;;
35056;SDS011;21241;51.828;19.574;2022-12-29T00:08:32;10.00;;;9.00;;
35056;SDS011;21241;51.828;19.574;2022-12-29T00:11:09;9.00;;;8.20;;
35056;SDS011;21241;51.828;19.574;2022-12-29T00:13:41;9.50;;;8.60;;
35056;SDS011;21241;51.828;19.574;2022-12-29T00:16:28;9.30;;;8.40;;
35056;SDS011;21241;51.828;19.574;2022-12-29T00:18:57;9.60;;;8.70;;
35056;SDS011;21241;51.828;19.574;2022-12-29T00:21:25;10.00;;;9.00;;
35056;SDS011;21241;51.828;19.574;2022-12-29T00:24:13;9.20;;;8.40;;
35056;SDS011;21241;51.828;19.574;2022-12-29T00:29:51;10.00;;;8.30;;
35056;SDS011;21241;51.828;19.574;2022-12-29T00:32:38;9.90;;;9.00;;
35056;SDS011;21241;51.828;19.574;2022-12-29T00:35:28;10.40;;;9.40;;
35056;SDS011;21241;51.828;19.574;2022-12-29T00:37:58;9.50;;;8.60;;
35056;SDS011;21241;51.828;19.574;2022-12-29T00:40:49;9.60;;;8.70;;
35056;SDS011;21241;51.828;19.574;2022-12-29T00:43:36;10.00;;;9.10;;
35056;SDS011;21241;51.828;19.574;2022-12-29T00:46:23;9.70;;;8.80;;
35056;SDS011;21241;51.828;19.574;2022-12-29T00:48:50;9.70;;;8.60;;
35056;SDS011;21241;51.828;19.574;2022-12-29T00:51:37;9.00;;;8.20;;
35056;SDS011;21241;51.828;19.574;2022-12-29T00:54:05;9.70;;;8.80;;
35056;SDS011;21241;51.828;19.574;2022-12-29T00:56:33;8.90;;;8.00;;
35056;SDS011;21241;51.828;19.574;2022-12-29T00:59:02;9.20;;;8.30;;
35056;SDS011;21241;51.828;19.574;2022-12-29T01:01:31;8.70;;;7.80;;
35056;SDS011;21241;51.828;19.574;2022-12-29T01:03:59;9.30;;;8.40;;
35056;SDS011;21241;51.828;19.574;2022-12-29T01:06:31;8.50;;;7.80;;
35056;SDS011;21241;51.828;19.574;2022-12-29T01:09:00;9.10;;;8.20;;
35056;SDS011;21241;51.828;19.574;2022-12-29T01:11:47;8.90;;;7.90;;
35056;SDS011;21241;51.828;19.574;2022-12-29T01:14:15;8.50;;;7.60;;
35056;SDS011;21241;51.828;19.574;2022-12-29T01:16:44;8.50;;;7.70;;
35056;SDS011;21241;51.828;19.574;2022-12-29T01:19:13;8.40;;;7.60;;
35056;SDS011;21241;51.828;19.574;2022-12-29T01:21:41;8.50;;;7.70;;
35056;SDS011;21241;51.828;19.574;2022-12-29T01:24:09;8.20;;;7.30;;
35056;SDS011;21241;51.828;19.574;2022-12-29T01:26:37;8.60;;;7.70;;
35056;SDS011;21241;51.828;19.574;2022-12-29T01:29:05;8.40;;;7.60;;
35056;SDS011;21241;51.828;19.574;2022-12-29T01:31:33;8.30;;;7.50;;
35056;SDS011;21241;51.828;19.574;2022-12-29T01:34:01;7.70;;;7.00;;
35056;SDS011;21241;51.828;19.574;2022-12-29T01:36:29;7.50;;;6.70;;
35056;SDS011;21241;51.828;19.574;2022-12-29T01:38:58;7.20;;;6.50;;
35056;SDS011;21241;51.828;19.574;2022-12-29T01:41:26;7.90;;;7.10;;
35056;SDS011;21241;51.828;19.574;2022-12-29T01:43:55;7.50;;;6.80;;
35056;SDS011;21241;51.828;19.574;2022-12-29T01:46:40;7.60;;;6.90;;
35056;SDS011;21241;51.828;19.574;2022-12-29T01:49:19;7.40;;;6.70;;
35056;SDS011;21241;51.828;19.574;2022-12-29T01:51:52;7.80;;;7.00;;
35056;SDS011;21241;51.828;19.574;2022-12-29T01:54:31;7.80;;;7.00;;
35056;SDS011;21241;51.828;19.574;2022-12-29T01:57:06;7.40;;;6.60;;
35056;SDS011;21241;51.828;19.574;2022-12-29T01:59:48;7.80;;;7.00;;
35056;SDS011;21241;51.828;19.574;2022-12-29T02:02:19;7.50;;;6.80;;
35056;SDS011;21241;51.828;19.574;2022-12-29T02:04:48;7.00;;;6.30;;
35056;SDS011;21241;51.828;19.574;2022-12-29T02:07:18;7.10;;;6.40;;
35056;SDS011;21241;51.828;19.574;2022-12-29T02:09:50;6.70;;;6.00;;
35056;SDS011;21241;51.828;19.574;2022-12-29T02:12:20;7.00;;;6.30;;
35056;SDS011;21241;51.828;19.574;2022-12-29T02:14:49;7.60;;;6.90;;
35056;SDS011;21241;51.828;19.574;2022-12-29T02:17:35;7.10;;;6.40;;
35056;SDS011;21241;51.828;19.574;2022-12-29T02:23:17;6.30;;;5.70;;
35056;SDS011;21241;51.828;19.574;2022-12-29T02:29:02;6.50;;;5.90;;
35056;SDS011;21241;51.828;19.574;2022-12-29T02:34:47;5.80;;;5.30;;
35056;SDS011;21241;51.828;19.574;2022-12-29T02:37:32;5.70;;;5.20;;
35056;SDS011;21241;51.828;19.574;2022-12-29T02:40:23;5.80;;;5.30;;
35056;SDS011;21241;51.828;19.574;2022-12-29T02:43:00;6.30;;;5.80;;
35056;SDS011;21241;51.828;19.574;2022-12-29T02:45:34;5.90;;;5.30;;
35056;SDS011;21241;51.828;19.574;2022-12-29T02:48:28;6.30;;;5.70;;
35056;SDS011;21241;51.828;19.574;2022-12-29T02:51:04;5.90;;;5.40;;
35056;SDS011;21241;51.828;19.574;2022-12-29T02:53:52;6.10;;;5.60;;
35056;SDS011;21241;51.828;19.574;2022-12-29T02:56:38;6.10;;;5.50;;
35056;SDS011;21241;51.828;19.574;2022-12-29T02:59:06;6.10;;;5.60;;
35056;SDS011;21241;51.828;19.574;2022-12-29T03:01:43;6.00;;;5.40;;
35056;SDS011;21241;51.828;19.574;2022-12-29T03:09:52;6.40;;;5.50;;
35056;SDS011;21241;51.828;19.574;2022-12-29T03:12:35;6.10;;;5.40;;
35056;SDS011;21241;51.828;19.574;2022-12-29T03:15:33;5.50;;;5.00;;
35056;SDS011;21241;51.828;19.574;2022-12-29T03:18:23;5.50;;;5.00;;
35056;SDS011;21241;51.828;19.574;2022-12-29T03:21:05;5.70;;;5.20;;
35056;SDS011;21241;51.828;19.574;2022-12-29T03:23:39;6.00;;;5.40;;
35056;SDS011;21241;51.828;19.574;2022-12-29T03:26:09;5.70;;;5.10;;
35056;SDS011;21241;51.828;19.574;2022-12-29T03:28:41;6.30;;;5.60;;
35056;SDS011;21241;51.828;19.574;2022-12-29T03:31:16;5.60;;;5.10;;
35056;SDS011;21241;51.828;19.574;2022-12-29T03:33:46;5.90;;;5.40;;
35056;SDS011;21241;51.828;19.574;2022-12-29T03:36:20;6.00;;;5.40;;
35056;SDS011;21241;51.828;19.574;2022-12-29T03:39:02;6.20;;;5.60;;
35056;SDS011;21241;51.828;19.574;2022-12-29T03:41:36;6.70;;;6.00;;
35056;SDS011;21241;51.828;19.574;2022-12-29T03:44:08;6.00;;;5.40;;
35056;SDS011;21241;51.828;19.574;2022-12-29T03:46:35;5.90;;;5.40;;
35056;SDS011;21241;51.828;19.574;2022-12-29T03:49:03;5.50;;;5.00;;
35056;SDS011;21241;51.828;19.574;2022-12-29T03:51:31;6.50;;;6.00;;
35056;SDS011;21241;51.828;19.574;2022-12-29T03:53:59;8.90;;;8.20;;
35056;SDS011;21241;51.828;19.574;2022-12-29T03:56:27;5.80;;;5.30;;
35056;SDS011;21241;51.828;19.574;2022-12-29T03:58:54;5.90;;;5.40;;
35056;SDS011;21241;51.828;19.574;2022-12-29T04:01:31;5.80;;;5.30;;
35056;SDS011;21241;51.828;19.574;2022-12-29T04:03:59;6.40;;;5.90;;
35056;SDS011;21241;51.828;19.574;2022-12-29T04:06:27;5.50;;;5.00;;
35056;SDS011;21241;51.828;19.574;2022-12-29T04:09:01;6.10;;;5.60;;
35056;SDS011;21241;51.828;19.574;2022-12-29T04:11:32;6.30;;;5.70;;
35056;SDS011;21241;51.828;19.574;2022-12-29T04:14:02;6.50;;;5.90;;
35056;SDS011;21241;51.828;19.574;2022-12-29T04:16:32;7.10;;;6.50;;
35056;SDS011;21241;51.828;19.574;2022-12-29T04:19:04;6.20;;;5.70;;
35056;SDS011;21241;51.828;19.574;2022-12-29T04:21:35;6.70;;;6.10;;
35056;SDS011;21241;51.828;19.574;2022-12-29T04:24:04;5.90;;;5.30;;
35056;SDS011;21241;51.828;19.574;2022-12-29T04:26:38;6.50;;;5.90;;
35056;SDS011;21241;51.828;19.574;2022-12-29T04:29:20;5.90;;;5.30;;
35056;SDS011;21241;51.828;19.574;2022-12-29T04:32:13;6.10;;;5.50;;
35056;SDS011;21241;51.828;19.574;2022-12-29T04:34:46;5.40;;;5.00;;
35056;SDS011;21241;51.828;19.574;2022-12-29T04:37:13;6.70;;;5.50;;
35056;SDS011;21241;51.828;19.574;2022-12-29T04:39:42;5.70;;;5.20;;
35056;SDS011;21241;51.828;19.574;2022-12-29T04:42:09;5.60;;;5.10;;
35056;SDS011;21241;51.828;19.574;2022-12-29T04:44:37;5.80;;;5.20;;
35056;SDS011;21241;51.828;19.574;2022-12-29T04:47:20;6.20;;;5.60;;
35056;SDS011;21241;51.828;19.574;2022-12-29T04:49:59;6.30;;;5.60;;
35056;SDS011;21241;51.828;19.574;2022-12-29T04:52:40;7.70;;;6.50;;
35056;SDS011;21241;51.828;19.574;2022-12-29T04:55:10;6.20;;;5.60;;
35056;SDS011;21241;51.828;19.574;2022-12-29T04:57:37;5.80;;;5.30;;
35056;SDS011;21241;51.828;19.574;2022-12-29T05:00:06;6.90;;;6.30;;
35056;SDS011;21241;51.828;19.574;2022-12-29T05:02:37;6.30;;;5.70;;
35056;SDS011;21241;51.828;19.574;2022-12-29T05:05:05;6.00;;;5.40;;
35056;SDS011;21241;51.828;19.574;2022-12-29T05:07:36;6.30;;;5.70;;
35056;SDS011;21241;51.828;19.574;2022-12-29T05:10:04;6.10;;;5.50;;
35056;SDS011;21241;51.828;19.574;2022-12-29T05:12:33;5.70;;;5.20;;
35056;SDS011;21241;51.828;19.574;2022-12-29T05:15:02;9.00;;;8.20;;
35056;SDS011;21241;51.828;19.574;2022-12-29T05:20:42;9.10;;;5.60;;
35056;SDS011;21241;51.828;19.574;2022-12-29T05:23:10;7.60;;;5.70;;
35056;SDS011;21241;51.828;19.574;2022-12-29T05:25:38;5.90;;;5.20;;
35056;SDS011;21241;51.828;19.574;2022-12-29T05:28:26;6.10;;;5.50;;
35056;SDS011;21241;51.828;19.574;2022-12-29T05:31:00;6.00;;;5.40;;
35056;SDS011;21241;51.828;19.574;2022-12-29T05:33:29;6.40;;;5.80;;
35056;SDS011;21241;51.828;19.574;2022-12-29T05:36:03;7.50;;;5.90;;
35056;SDS011;21241;51.828;19.574;2022-12-29T05:38:36;6.20;;;5.60;;
35056;SDS011;21241;51.828;19.574;2022-12-29T05:41:04;6.70;;;6.00;;
35056;SDS011;21241;51.828;19.574;2022-12-29T05:43:51;6.70;;;6.10;;
35056;SDS011;21241;51.828;19.574;2022-12-29T05:46:39;7.20;;;6.30;;
35056;SDS011;21241;51.828;19.574;2022-12-29T05:49:30;5.90;;;5.40;;
35056;SDS011;21241;51.828;19.574;2022-12-29T05:52:40;5.70;;;5.20;;
35056;SDS011;21241;51.828;19.574;2022-12-29T05:55:08;6.00;;;5.40;;
35056;SDS011;21241;51.828;19.574;2022-12-29T05:57:38;5.90;;;5.40;;
35056;SDS011;21241;51.828;19.574;2022-12-29T06:00:10;5.90;;;5.40;;
35056;SDS011;21241;51.828;19.574;2022-12-29T06:02:41;6.30;;;5.60;;
35056;SDS011;21241;51.828;19.574;2022-12-29T06:05:10;5.90;;;5.40;;
35056;SDS011;21241;51.828;19.574;2022-12-29T06:07:39;5.40;;;4.90;;
35056;SDS011;21241;51.828;19.574;2022-12-29T06:10:07;5.70;;;5.20;;
35056;SDS011;21241;51.828;19.574;2022-12-29T06:12:43;6.50;;;5.90;;
35056;SDS011;21241;51.828;19.574;2022-12-29T06:15:11;6.40;;;5.90;;
35056;SDS011;21241;51.828;19.574;2022-12-29T06:17:42;6.40;;;5.90;;
35056;SDS011;21241;51.828;19.574;2022-12-29T06:20:10;6.50;;;5.90;;
35056;SDS011;21241;51.828;19.574;2022-12-29T06:22:38;5.70;;;5.20;;
35056;SDS011;21241;51.828;19.574;2022-12-29T06:25:07;6.60;;;6.00;;
35056;SDS011;21241;51.828;19.574;2022-12-29T06:27:36;8.30;;;7.00;;
35056;SDS011;21241;51.828;19.574;2022-12-29T06:30:03;6.30;;;5.70;;
35056;SDS011;21241;51.828;19.574;2022-12-29T06:32:32;6.40;;;5.80;;
35056;SDS011;21241;51.828;19.574;2022-12-29T06:35:03;6.70;;;6.10;;
35056;SDS011;21241;51.828;19.574;2022-12-29T06:37:37;6.60;;;6.00;;
35056;SDS011;21241;51.828;19.574;2022-12-29T06:40:05;6.70;;;6.10;;
35056;SDS011;21241;51.828;19.574;2022-12-29T06:42:50;7.20;;;6.60;;
35056;SDS011;21241;51.828;19.574;2022-12-29T06:45:38;6.70;;;6.00;;
35056;SDS011;21241;51.828;19.574;2022-12-29T06:48:07;6.40;;;5.90;;
35056;SDS011;21241;51.828;19.574;2022-12-29T06:50:35;7.00;;;6.10;;
35056;SDS011;21241;51.828;19.574;2022-12-29T06:53:03;5.90;;;5.40;;
35056;SDS011;21241;51.828;19.574;2022-12-29T06:55:31;6.80;;;6.10;;
35056;SDS011;21241;51.828;19.574;2022-12-29T06:57:59;6.60;;;6.00;;
35056;SDS011;21241;51.828;19.574;2022-12-29T07:00:28;6.70;;;6.10;;
35056;SDS011;21241;51.828;19.574;2022-12-29T07:02:56;6.60;;;6.00;;
35056;SDS011;21241;51.828;19.574;2022-12-29T07:05:28;6.70;;;6.10;;
35056;SDS011;21241;51.828;19.574;2022-12-29T07:07:56;6.20;;;5.60;;
35056;SDS011;21241;51.828;19.574;2022-12-29T07:10:23;6.80;;;6.10;;
35056;SDS011;21241;51.828;19.574;2022-12-29T07:12:51;7.50;;;6.70;;
35056;SDS011;21241;51.828;19.574;2022-12-29T07:15:19;6.80;;;6.20;;
35056;SDS011;21241;51.828;19.574;2022-12-29T07:17:47;6.20;;;5.70;;
35056;SDS011;21241;51.828;19.574;2022-12-29T07:20:17;6.90;;;6.20;;
35056;SDS011;21241;51.828;19.574;2022-12-29T07:22:53;6.20;;;5.70;;
35056;SDS011;21241;51.828;19.574;2022-12-29T07:25:21;6.80;;;6.20;;
35056;SDS011;21241;51.828;19.574;2022-12-29T07:27:50;8.60;;;6.40;;
35056;SDS011;21241;51.828;19.574;2022-12-29T07:30:18;6.50;;;5.90;;
35056;SDS011;21241;51.828;19.574;2022-12-29T07:32:46;7.00;;;6.40;;
35056;SDS011;21241;51.828;19.574;2022-12-29T07:35:14;7.10;;;6.40;;
35056;SDS011;21241;51.828;19.574;2022-12-29T07:37:41;7.70;;;7.00;;
35056;SDS011;21241;51.828;19.574;2022-12-29T07:40:09;7.30;;;6.60;;
35056;SDS011;21241;51.828;19.574;2022-12-29T07:42:38;6.70;;;6.10;;
35056;SDS011;21241;51.828;19.574;2022-12-29T07:45:08;7.30;;;6.60;;
35056;SDS011;21241;51.828;19.574;2022-12-29T07:47:48;7.00;;;6.40;;
35056;SDS011;21241;51.828;19.574;2022-12-29T07:50:17;8.20;;;6.70;;
35056;SDS011;21241;51.828;19.574;2022-12-29T07:52:45;7.10;;;6.40;;
35056;SDS011;21241;51.828;19.574;2022-12-29T07:55:15;8.00;;;7.20;;
35056;SDS011;21241;51.828;19.574;2022-12-29T07:57:44;7.80;;;7.00;;
35056;SDS011;21241;51.828;19.574;2022-12-29T08:00:12;7.60;;;6.50;;
35056;SDS011;21241;51.828;19.574;2022-12-29T08:02:40;7.20;;;6.50;;
35056;SDS011;21241;51.828;19.574;2022-12-29T08:05:08;7.40;;;6.60;;
35056;SDS011;21241;51.828;19.574;2022-12-29T08:07:35;6.90;;;6.20;;
35056;SDS011;21241;51.828;19.574;2022-12-29T08:10:03;7.80;;;6.60;;
35056;SDS011;21241;51.828;19.574;2022-12-29T08:12:32;9.40;;;7.10;;
35056;SDS011;21241;51.828;19.574;2022-12-29T08:14:59;7.60;;;6.90;;
35056;SDS011;21241;51.828;19.574;2022-12-29T08:17:27;10.70;;;8.20;;
35056;SDS011;21241;51.828;19.574;2022-12-29T08:19:55;7.70;;;6.90;;
35056;SDS011;21241;51.828;19.574;2022-12-29T08:22:22;8.60;;;7.70;;
35056;SDS011;21241;51.828;19.574;2022-12-29T08:24:50;8.80;;;8.00;;
35056;SDS011;21241;51.828;19.574;2022-12-29T08:27:18;8.70;;;7.80;;
35056;SDS011;21241;51.828;19.574;2022-12-29T08:29:48;9.60;;;8.20;;
35056;SDS011;21241;51.828;19.574;2022-12-29T08:32:16;10.00;;;7.80;;
35056;SDS011;21241;51.828;19.574;2022-12-29T08:34:44;8.40;;;7.70;;
35056;SDS011;21241;51.828;19.574;2022-12-29T08:37:12;8.20;;;7.30;;
35056;SDS011;21241;51.828;19.574;2022-12-29T08:39:39;8.30;;;7.60;;
35056;SDS011;21241;51.828;19.574;2022-12-29T08:42:07;8.40;;;7.50;;
35056;SDS011;21241;51.828;19.574;2022-12-29T08:44:35;8.70;;;7.50;;
35056;SDS011;21241;51.828;19.574;2022-12-29T08:47:02;9.30;;;8.50;;
35056;SDS011;21241;51.828;19.574;2022-12-29T08:49:30;12.30;;;11.30;;
35056;SDS011;21241;51.828;19.574;2022-12-29T08:51:59;9.10;;;8.20;;
35056;SDS011;21241;51.828;19.574;2022-12-29T08:54:26;30.00;;;27.50;;
35056;SDS011;21241;51.828;19.574;2022-12-29T08:56:55;48.60;;;45.00;;
35056;SDS011;21241;51.828;19.574;2022-12-29T08:59:31;23.60;;;21.80;;
35056;SDS011;21241;51.828;19.574;2022-12-29T09:01:59;23.80;;;22.20;;
35056;SDS011;21241;51.828;19.574;2022-12-29T09:04:27;14.50;;;13.40;;
35056;SDS011;21241;51.828;19.574;2022-12-29T09:06:56;12.50;;;11.50;;
35056;SDS011;21241;51.828;19.574;2022-12-29T09:09:23;8.80;;;8.00;;
35056;SDS011;21241;51.828;19.574;2022-12-29T09:11:51;8.70;;;7.80;;
35056;SDS011;21241;51.828;19.574;2022-12-29T09:14:19;9.00;;;8.20;;
35056;SDS011;21241;51.828;19.574;2022-12-29T09:16:46;8.50;;;7.80;;
35056;SDS011;21241;51.828;19.574;2022-12-29T09:19:33;8.70;;;7.80;;
35056;SDS011;21241;51.828;19.574;2022-12-29T09:22:01;8.30;;;7.40;;
35056;SDS011;21241;51.828;19.574;2022-12-29T09:24:28;8.40;;;7.60;;
35056;SDS011;21241;51.828;19.574;2022-12-29T09:26:56;8.30;;;7.50;;
35056;SDS011;21241;51.828;19.574;2022-12-29T09:29:24;8.60;;;7.90;;
35056;SDS011;21241;51.828;19.574;2022-12-29T09:31:52;9.00;;;8.10;;
35056;SDS011;21241;51.828;19.574;2022-12-29T09:34:19;9.50;;;8.60;;
35056;SDS011;21241;51.828;19.574;2022-12-29T09:36:47;11.60;;;8.70;;
35056;SDS011;21241;51.828;19.574;2022-12-29T09:39:15;9.50;;;8.60;;
35056;SDS011;21241;51.828;19.574;2022-12-29T09:41:45;11.70;;;10.70;;
35056;SDS011;21241;51.828;19.574;2022-12-29T09:47:16;9.20;;;8.40;;
35056;SDS011;21241;51.828;19.574;2022-12-29T09:49:46;8.90;;;8.00;;
35056;SDS011;21241;51.828;19.574;2022-12-29T09:54:57;8.70;;;7.80;;
35056;SDS011;21241;51.828;19.574;2022-12-29T09:57:47;8.00;;;7.30;;
35056;SDS011;21241;51.828;19.574;2022-12-29T10:00:36;8.90;;;8.00;;
35056;SDS011;21241;51.828;19.574;2022-12-29T10:03:11;9.00;;;8.10;;
35056;SDS011;21241;51.828;19.574;2022-12-29T10:17:12;10.10;;;9.10;;
35056;SDS011;21241;51.828;19.574;2022-12-29T10:20:18;10.70;;;9.70;;
35056;SDS011;21241;51.828;19.574;2022-12-29T10:25:46;9.20;;;8.30;;
35056;SDS011;21241;51.828;19.574;2022-12-29T10:28:20;9.50;;;8.30;;
35056;SDS011;21241;51.828;19.574;2022-12-29T10:30:50;10.40;;;8.70;;
35056;SDS011;21241;51.828;19.574;2022-12-29T10:33:24;8.80;;;8.00;;
35056;SDS011;21241;51.828;19.574;2022-12-29T10:35:59;8.90;;;8.10;;
35056;SDS011;21241;51.828;19.574;2022-12-29T10:38:35;9.80;;;8.80;;
35056;SDS011;21241;51.828;19.574;2022-12-29T10:43:51;10.20;;;8.30;;
35056;SDS011;21241;51.828;19.574;2022-12-29T10:46:42;8.80;;;8.00;;
35056;SDS011;21241;51.828;19.574;2022-12-29T10:49:14;8.20;;;7.30;;
35056;SDS011;21241;51.828;19.574;2022-12-29T10:51:48;8.90;;;8.00;;
35056;SDS011;21241;51.828;19.574;2022-12-29T10:54:26;8.60;;;7.60;;
35056;SDS011;21241;51.828;19.574;2022-12-29T10:57:02;10.10;;;9.00;;
35056;SDS011;21241;51.828;19.574;2022-12-29T10:59:33;8.70;;;7.90;;
35056;SDS011;21241;51.828;19.574;2022-12-29T11:07:30;9.30;;;8.40;;
35056;SDS011;21241;51.828;19.574;2022-12-29T11:13:17;9.30;;;8.10;;
35056;SDS011;21241;51.828;19.574;2022-12-29T11:15:47;8.60;;;7.80;;
35056;SDS011;21241;51.828;19.574;2022-12-29T11:18:26;9.50;;;8.30;;
35056;SDS011;21241;51.828;19.574;2022-12-29T11:20:59;11.90;;;8.00;;
35056;SDS011;21241;51.828;19.574;2022-12-29T11:23:31;8.20;;;7.40;;
35056;SDS011;21241;51.828;19.574;2022-12-29T11:31:44;9.00;;;8.10;;
35056;SDS011;21241;51.828;19.574;2022-12-29T11:34:23;8.20;;;7.30;;
35056;SDS011;21241;51.828;19.574;2022-12-29T11:37:03;8.70;;;7.90;;
35056;SDS011;21241;51.828;19.574;2022-12-29T11:39:35;9.10;;;8.30;;
35056;SDS011;21241;51.828;19.574;2022-12-29T11:42:06;8.00;;;7.30;;
35056;SDS011;21241;51.828;19.574;2022-12-29T11:44:44;7.90;;;7.20;;
35056;SDS011;21241;51.828;19.574;2022-12-29T11:47:19;8.60;;;7.80;;
35056;SDS011;21241;51.828;19.574;2022-12-29T11:49:54;8.70;;;7.90;;
35056;SDS011;21241;51.828;19.574;2022-12-29T11:52:24;8.30;;;7.20;;
35056;SDS011;21241;51.828;19.574;2022-12-29T11:54:54;8.70;;;7.80;;
35056;SDS011;21241;51.828;19.574;2022-12-29T11:57:22;11.80;;;9.90;;
35056;SDS011;21241;51.828;19.574;2022-12-29T11:59:52;12.50;;;11.20;;
35056;SDS011;21241;51.828;19.574;2022-12-29T12:05:20;9.00;;;8.20;;
35056;SDS011;21241;51.828;19.574;2022-12-29T12:07:54;9.80;;;9.00;;
35056;SDS011;21241;51.828;19.574;2022-12-29T12:10:47;9.70;;;8.50;;
35056;SDS011;21241;51.828;19.574;2022-12-29T12:13:29;8.60;;;7.80;;
35056;SDS011;21241;51.828;19.574;2022-12-29T12:16:03;10.00;;;8.30;;
35056;SDS011;21241;51.828;19.574;2022-12-29T12:18:40;8.70;;;7.90;;
35056;SDS011;21241;51.828;19.574;2022-12-29T12:21:39;7.90;;;7.20;;
35056;SDS011;21241;51.828;19.574;2022-12-29T12:24:37;9.00;;;7.70;;
35056;SDS011;21241;51.828;19.574;2022-12-29T12:30:25;9.20;;;8.30;;
35056;SDS011;21241;51.828;19.574;2022-12-29T12:33:00;10.10;;;9.20;;
35056;SDS011;21241;51.828;19.574;2022-12-29T12:35:44;11.10;;;10.00;;
35056;SDS011;21241;51.828;19.574;2022-12-29T12:55:02;9.00;;;8.00;;
35056;SDS011;21241;51.828;19.574;2022-12-29T12:57:53;9.90;;;8.60;;
35056;SDS011;21241;51.828;19.574;2022-12-29T13:00:40;9.60;;;8.60;;
35056;SDS011;21241;51.828;19.574;2022-12-29T13:03:31;9.80;;;8.40;;
35056;SDS011;21241;51.828;19.574;2022-12-29T13:12:43;23.30;;;21.10;;
35056;SDS011;21241;51.828;19.574;2022-12-29T13:19:00;9.60;;;8.70;;
35056;SDS011;21241;51.828;19.574;2022-12-29T13:27:16;12.10;;;11.00;;
35056;SDS011;21241;51.828;19.574;2022-12-29T13:32:50;10.80;;;9.70;;
35056;SDS011;21241;51.828;19.574;2022-12-29T13:38:21;13.80;;;12.40;;
35056;SDS011;21241;51.828;19.574;2022-12-29T13:40:54;12.00;;;10.80;;
35056;SDS011;21241;51.828;19.574;2022-12-29T13:43:24;11.30;;;10.10;;
35056;SDS011;21241;51.828;19.574;2022-12-29T13:45:56;10.90;;;9.90;;
35056;SDS011;21241;51.828;19.574;2022-12-29T13:48:34;11.80;;;9.50;;
35056;SDS011;21241;51.828;19.574;2022-12-29T13:51:04;11.60;;;9.90;;
35056;SDS011;21241;51.828;19.574;2022-12-29T13:53:50;11.90;;;10.80;;
35056;SDS011;21241;51.828;19.574;2022-12-29T13:56:42;9.20;;;8.30;;
35056;SDS011;21241;51.828;19.574;2022-12-29T13:59:19;9.60;;;8.70;;
35056;SDS011;21241;51.828;19.574;2022-12-29T14:02:08;10.50;;;9.40;;
35056;SDS011;21241;51.828;19.574;2022-12-29T14:04:54;9.70;;;8.60;;
35056;SDS011;21241;51.828;19.574;2022-12-29T14:07:27;9.50;;;8.60;;
35056;SDS011;21241;51.828;19.574;2022-12-29T14:09:56;10.40;;;9.40;;
35056;SDS011;21241;51.828;19.574;2022-12-29T14:12:28;14.90;;;13.40;;
35056;SDS011;21241;51.828;19.574;2022-12-29T14:17:43;11.70;;;10.50;;
35056;SDS011;21241;51.828;19.574;2022-12-29T14:20:21;10.20;;;9.10;;
35056;SDS011;21241;51.828;19.574;2022-12-29T14:23:00;16.00;;;14.40;;
35056;SDS011;21241;51.828;19.574;2022-12-29T14:25:57;11.40;;;9.40;;
35056;SDS011;21241;51.828;19.574;2022-12-29T14:28:46;10.50;;;9.40;;
35056;SDS011;21241;51.828;19.574;2022-12-29T14:36:41;12.00;;;10.90;;
35056;SDS011;21241;51.828;19.574;2022-12-29T14:44:52;9.70;;;8.80;;
35056;SDS011;21241;51.828;19.574;2022-12-29T14:52:57;10.60;;;9.60;;
35056;SDS011;21241;51.828;19.574;2022-12-29T14:55:40;10.00;;;8.60;;
35056;SDS011;21241;51.828;19.574;2022-12-29T14:58:31;10.20;;;9.20;;
35056;SDS011;21241;51.828;19.574;2022-12-29T15:00:59;9.40;;;8.50;;
35056;SDS011;21241;51.828;19.574;2022-12-29T15:03:29;9.80;;;8.90;;
35056;SDS011;21241;51.828;19.574;2022-12-29T15:08:38;9.60;;;8.60;;
35056;SDS011;21241;51.828;19.574;2022-12-29T15:11:12;12.20;;;11.20;;
35056;SDS011;21241;51.828;19.574;2022-12-29T15:13:42;11.40;;;10.30;;
35056;SDS011;21241;51.828;19.574;2022-12-29T15:16:21;10.00;;;9.00;;
35056;SDS011;21241;51.828;19.574;2022-12-29T15:18:49;11.10;;;10.10;;
35056;SDS011;21241;51.828;19.574;2022-12-29T15:21:19;13.40;;;11.80;;
35056;SDS011;21241;51.828;19.574;2022-12-29T15:23:50;11.10;;;10.10;;
35056;SDS011;21241;51.828;19.574;2022-12-29T15:26:18;12.40;;;10.20;;
35056;SDS011;21241;51.828;19.574;2022-12-29T15:28:50;11.20;;;10.20;;
35056;SDS011;21241;51.828;19.574;2022-12-29T15:31:21;11.20;;;10.10;;
35056;SDS011;21241;51.828;19.574;2022-12-29T15:34:10;11.90;;;10.80;;
35056;SDS011;21241;51.828;19.574;2022-12-29T15:36:40;11.90;;;10.80;;
35056;SDS011;21241;51.828;19.574;2022-12-29T15:42:09;11.50;;;10.40;;
35056;SDS011;21241;51.828;19.574;2022-12-29T15:45:03;11.30;;;10.20;;
35056;SDS011;21241;51.828;19.574;2022-12-29T15:47:38;13.40;;;12.10;;
35056;SDS011;21241;51.828;19.574;2022-12-29T15:50:23;12.60;;;11.50;;
35056;SDS011;21241;51.828;19.574;2022-12-29T15:52:54;14.30;;;13.00;;
35056;SDS011;21241;51.828;19.574;2022-12-29T15:57:57;11.80;;;10.70;;
35056;SDS011;21241;51.828;19.574;2022-12-29T16:02:59;12.30;;;11.00;;
35056;SDS011;21241;51.828;19.574;2022-12-29T16:05:36;12.70;;;11.40;;
35056;SDS011;21241;51.828;19.574;2022-12-29T16:08:22;12.90;;;11.70;;
35056;SDS011;21241;51.828;19.574;2022-12-29T16:10:55;12.80;;;11.70;;
35056;SDS011;21241;51.828;19.574;2022-12-29T16:13:30;12.20;;;11.00;;
35056;SDS011;21241;51.828;19.574;2022-12-29T16:16:28;11.90;;;10.80;;
35056;SDS011;21241;51.828;19.574;2022-12-29T16:19:10;11.40;;;10.10;;
35056;SDS011;21241;51.828;19.574;2022-12-29T16:21:52;11.10;;;10.00;;
35056;SDS011;21241;51.828;19.574;2022-12-29T16:24:22;12.10;;;11.00;;
35056;SDS011;21241;51.828;19.574;2022-12-29T16:26:58;11.80;;;10.70;;
35056;SDS011;21241;51.828;19.574;2022-12-29T16:29:30;11.90;;;10.90;;
35056;SDS011;21241;51.828;19.574;2022-12-29T16:31:58;12.80;;;11.50;;
35056;SDS011;21241;51.828;19.574;2022-12-29T16:34:32;13.30;;;12.00;;
35056;SDS011;21241;51.828;19.574;2022-12-29T16:37:02;12.10;;;10.90;;
35056;SDS011;21241;51.828;19.574;2022-12-29T16:41:59;12.90;;;11.50;;
35056;SDS011;21241;51.828;19.574;2022-12-29T16:44:30;11.90;;;10.80;;
35056;SDS011;21241;51.828;19.574;2022-12-29T16:49:39;12.90;;;11.70;;
35056;SDS011;21241;51.828;19.574;2022-12-29T16:52:18;13.80;;;12.40;;
35056;SDS011;21241;51.828;19.574;2022-12-29T16:54:50;13.60;;;12.20;;
35056;SDS011;21241;51.828;19.574;2022-12-29T16:57:23;14.50;;;13.00;;
35056;SDS011;21241;51.828;19.574;2022-12-29T16:59:54;13.40;;;12.00;;
35056;SDS011;21241;51.828;19.574;2022-12-29T17:02:25;13.10;;;11.80;;
35056;SDS011;21241;51.828;19.574;2022-12-29T17:04:56;14.50;;;13.00;;
35056;SDS011;21241;51.828;19.574;2022-12-29T17:07:25;17.20;;;15.50;;
35056;SDS011;21241;51.828;19.574;2022-12-29T17:09:54;14.30;;;12.90;;
35056;SDS011;21241;51.828;19.574;2022-12-29T17:12:25;13.60;;;12.30;;
35056;SDS011;21241;51.828;19.574;2022-12-29T17:15:03;14.50;;;13.10;;
35056;SDS011;21241;51.828;19.574;2022-12-29T17:17:43;13.30;;;12.00;;
35056;SDS011;21241;51.828;19.574;2022-12-29T17:20:20;13.00;;;11.80;;
35056;SDS011;21241;51.828;19.574;2022-12-29T17:22:50;14.70;;;12.90;;
35056;SDS011;21241;51.828;19.574;2022-12-29T17:25:23;12.90;;;11.50;;